Time;durP1;ratioP1;P1;durP2;ratioP2;P2;SDS_P1;SDS_P2;PMS_P1;PMS_P2;Temp;Humidity;BMP_temperature;BMP_pressure;BME280_temperature;BME280_humidity;BME280_pressure;Samples;Min_cycle;Max_cycle;Signal;HPM_P1;HPM_P2
2022/10/17 00:00:36;;;;;;;56.30;35.63;;;;;;;8.11;93.65;101741.89;1430790;91;21391;-79
2022/10/17 00:03:02;;;;;;;56.63;32.97;;;;;;;8.05;95.00;101744.91;1437556;91;21516;-79
2022/10/17 00:05:28;;;;;;;51.63;30.57;;;;;;;7.99;95.94;101745.30;1430446;91;21346;-79
2022/10/17 00:07:54;;;;;;;41.97;27.90;;;;;;;7.93;95.31;101750.97;1433585;90;22509;-77
2022/10/17 00:10:21;;;;;;;44.97;30.03;;;;;;;7.93;94.28;101752.77;1433405;91;22088;-80
2022/10/17 00:12:47;;;;;;;44.33;27.87;;;;;;;7.94;93.88;101754.00;1438042;91;21548;-77
2022/10/17 00:15:20;;;;;;;74.87;38.40;;;;;;;7.94;94.63;101753.13;1434170;91;21578;-80
2022/10/17 00:17:47;;;;;;;62.93;37.60;;;;;;;7.91;94.50;101755.05;1430029;91;21677;-80
2022/10/17 00:20:14;;;;;;;53.27;33.50;;;;;;;7.88;94.32;101751.73;1432712;91;21442;-81
2022/10/17 00:22:41;;;;;;;51.47;30.47;;;;;;;7.84;94.74;101755.52;1436434;91;22550;-81
2022/10/17 00:25:08;;;;;;;52.70;33.80;;;;;;;7.79;94.29;101753.16;1433632;91;21522;-81
2022/10/17 00:27:38;;;;;;;46.47;28.37;;;;;;;7.79;94.05;101756.28;1434219;91;21523;-81
2022/10/17 00:30:08;;;;;;;38.90;26.70;;;;;;;7.80;93.67;101756.67;1428278;90;21419;-80
2022/10/17 00:32:34;;;;;;;45.50;28.57;;;;;;;7.81;93.81;101751.77;1438812;91;21623;-81
2022/10/17 00:35:01;;;;;;;48.70;30.83;;;;;;;7.82;93.64;101749.48;1438723;90;21416;-81
2022/10/17 00:37:28;;;;;;;40.90;28.90;;;;;;;7.85;93.47;101758.07;1436414;90;21455;-83
2022/10/17 00:39:55;;;;;;;51.67;30.53;;;;;;;7.86;93.29;101755.80;1429049;91;21587;-79
2022/10/17 00:42:21;;;;;;;39.13;26.77;;;;;;;7.85;92.99;101759.39;1434366;90;22693;-79
2022/10/17 00:44:58;;;;;;;40.87;26.70;;;;;;;7.85;93.00;101760.70;1439492;90;21616;-80
2022/10/17 00:47:24;;;;;;;40.60;26.90;;;;;;;7.84;92.62;101761.63;1433784;90;22536;-81
2022/10/17 00:49:51;;;;;;;46.10;26.63;;;;;;;7.84;92.58;101757.67;1437982;90;21575;-81
2022/10/17 00:52:25;;;;;;;41.70;25.63;;;;;;;7.85;92.67;101764.66;1437107;90;21362;-83
2022/10/17 00:54:59;;;;;;;35.63;25.03;;;;;;;7.84;92.90;101758.16;1429413;91;21419;-82
2022/10/17 00:57:28;;;;;;;44.80;27.57;;;;;;;7.80;94.27;101759.30;1437716;89;21478;-81
2022/10/17 00:59:57;;;;;;;39.97;27.97;;;;;;;7.77;93.76;101758.16;1430664;91;21508;-82
2022/10/17 01:02:24;;;;;;;44.53;28.53;;;;;;;7.74;94.10;101757.03;1429844;90;21475;-81
2022/10/17 01:04:54;;;;;;;55.63;33.00;;;;;;;7.72;93.48;101759.78;1425051;91;21417;-82
2022/10/17 01:07:20;;;;;;;45.73;28.98;;;;;;;7.68;94.24;101760.45;1444449;91;21398;-81
2022/10/17 01:09:47;;;;;;;41.03;27.10;;;;;;;7.66;94.19;101757.53;1432030;91;21478;-81
2022/10/17 01:12:25;;;;;;;49.57;26.83;;;;;;;7.63;94.50;101757.25;1431718;91;22306;-82
2022/10/17 01:15:17;;;;;;;53.60;28.30;;;;;;;7.59;95.34;101754.41;1423428;91;21582;-80
2022/10/17 01:18:16;;;;;;;52.27;34.07;;;;;;;7.57;94.68;101757.64;1414858;92;21737;-82
2022/10/17 01:21:15;;;;;;;53.47;34.67;;;;;;;7.57;94.03;101752.84;1416321;91;21491;-81
2022/10/17 01:24:11;;;;;;;66.13;35.43;;;;;;;7.56;93.73;101753.77;1409201;91;22610;-81
2022/10/17 01:27:10;;;;;;;74.80;42.17;;;;;;;7.53;93.58;101756.59;1410075;91;21530;-80
2022/10/17 01:30:00;;;;;;;60.77;36.47;;;;;;;7.47;93.51;101755.19;1444031;90;22449;-79
2022/10/17 01:32:37;;;;;;;68.83;39.78;;;;;;;7.43;93.44;101749.75;1432650;91;22520;-80
2022/10/17 01:35:18;;;;;;;66.73;36.47;;;;;;;7.40;93.28;101745.51;1434144;90;21523;-81
2022/10/17 01:38:07;;;;;;;55.05;32.90;;;;;;;7.38;94.12;101746.54;1437918;90;22327;-80
2022/10/17 01:40:38;;;;;;;55.63;31.80;;;;;;;7.34;95.09;101752.95;1404826;92;21451;-82
2022/10/17 01:43:27;;;;;;;51.73;31.70;;;;;;;7.31;95.03;101756.63;1409496;93;21494;-82
2022/10/17 01:46:01;;;;;;;40.43;26.07;;;;;;;7.28;95.90;101766.02;1441836;90;21500;-82
2022/10/17 01:48:33;;;;;;;45.53;26.87;;;;;;;7.23;95.56;101762.34;1442746;90;22418;-81
2022/10/17 01:51:07;;;;;;;43.13;27.70;;;;;;;7.20;95.14;101765.16;1410845;92;22526;-80
2022/10/17 01:53:45;;;;;;;41.63;26.97;;;;;;;7.15;94.66;101761.95;1404031;93;22412;-82
2022/10/17 01:56:13;;;;;;;34.50;24.07;;;;;;;7.13;94.52;101764.30;1433409;91;21567;-82
2022/10/17 01:58:53;;;;;;;33.90;22.57;;;;;;;7.11;94.84;101758.30;1431048;90;21711;-81
2022/10/17 02:01:21;;;;;;;34.90;22.80;;;;;;;7.06;95.88;101768.26;1408909;93;21504;-81
2022/10/17 02:03:50;;;;;;;30.93;22.33;;;;;;;7.05;94.98;101767.86;1411446;92;21559;-81
2022/10/17 02:06:16;;;;;;;33.00;22.60;;;;;;;7.03;94.40;101764.50;1381615;94;21544;-79
2022/10/17 02:08:47;;;;;;;40.47;26.20;;;;;;;7.07;94.17;101768.63;1405386;93;21415;-80
2022/10/17 02:11:25;;;;;;;33.38;21.48;;;;;;;7.08;94.21;101767.23;1438696;89;21439;-78
2022/10/17 02:14:18;;;;;;;39.60;25.57;;;;;;;7.08;93.78;101767.23;1439288;91;22311;-79
2022/10/17 02:17:15;;;;;;;39.23;24.50;;;;;;;7.06;93.83;101767.78;1383454;93;22498;-81
2022/10/17 02:20:04;;;;;;;35.03;22.03;;;;;;;7.02;93.72;101766.28;1443985;91;21394;-79
2022/10/17 02:22:45;;;;;;;34.13;23.97;;;;;;;7.04;93.69;101765.70;1434588;91;21542;-81
2022/10/17 02:25:36;;;;;;;34.78;22.17;;;;;;;7.02;94.51;101772.87;1433097;90;22502;-82
2022/10/17 02:28:20;;;;;;;40.10;26.13;;;;;;;6.97;96.10;101775.77;1435521;90;21452;-80
2022/10/17 02:30:59;;;;;;;39.43;25.60;;;;;;;6.94;96.85;101771.16;1436648;91;22341;-81
2022/10/17 02:33:36;;;;;;;40.93;24.07;;;;;;;6.91;97.64;101784.50;1437389;90;21424;-83
2022/10/17 02:36:08;;;;;;;41.10;24.90;;;;;;;6.87;97.74;101782.97;1444657;90;21343;-82
2022/10/17 02:38:34;;;;;;;35.83;23.20;;;;;;;6.83;97.64;101788.05;1434752;90;22293;-83
2022/10/17 02:41:02;;;;;;;38.30;23.40;;;;;;;6.82;96.26;101790.28;1440168;91;21602;-80
2022/10/17 02:43:28;;;;;;;34.80;21.17;;;;;;;6.84;95.74;101791.05;1438902;91;22327;-81
2022/10/17 02:45:56;;;;;;;37.10;21.33;;;;;;;6.87;95.56;101797.44;1440060;91;21731;-81
2022/10/17 02:48:40;;;;;;;35.27;21.23;;;;;;;6.91;95.08;101800.30;1433306;91;21542;-80
2022/10/17 02:51:19;;;;;;;35.03;22.20;;;;;;;6.93;94.59;101794.45;1453034;90;21660;-81
2022/10/17 02:54:19;;;;;;;34.57;22.37;;;;;;;6.91;94.22;101789.77;1433770;91;21395;-81
2022/10/17 02:57:07;;;;;;;35.73;23.70;;;;;;;6.90;93.99;101798.58;1444170;90;21634;-81
2022/10/17 02:59:36;;;;;;;39.83;23.57;;;;;;;6.86;93.80;101800.55;1437370;91;22275;-81
2022/10/17 03:02:04;;;;;;;33.20;22.13;;;;;;;6.85;93.91;101802.81;1436770;90;21460;-81
2022/10/17 03:04:31;;;;;;;30.47;20.10;;;;;;;6.84;93.98;101802.41;1430921;91;22262;-80
2022/10/17 03:06:57;;;;;;;33.87;20.90;;;;;;;6.84;93.84;101793.20;1436403;90;21645;-81
2022/10/17 03:09:23;;;;;;;29.07;19.70;;;;;;;6.86;93.46;101794.44;1436500;91;21409;-80
2022/10/17 03:11:49;;;;;;;33.43;21.93;;;;;;;6.87;93.29;101794.81;1431322;90;21615;-79
2022/10/17 03:14:16;;;;;;;34.90;22.70;;;;;;;6.86;93.28;101801.02;1438092;90;21563;-80
2022/10/17 03:16:42;;;;;;;37.80;23.57;;;;;;;6.86;93.30;101798.39;1430962;90;22525;-81
2022/10/17 03:19:08;;;;;;;37.40;22.93;;;;;;;6.83;93.25;101799.89;1427245;90;21597;-81
2022/10/17 03:21:36;;;;;;;33.37;21.40;;;;;;;6.77;93.15;101804.56;1432092;91;21541;-83
2022/10/17 03:24:04;;;;;;;32.50;21.47;;;;;;;6.75;93.19;101805.59;1436158;91;21517;-79
2022/10/17 03:26:30;;;;;;;35.10;19.57;;;;;;;6.72;93.44;101810.56;1443455;91;21441;-80
2022/10/17 03:28:56;;;;;;;30.17;19.27;;;;;;;6.73;93.42;101813.59;1442417;91;21478;-80
2022/10/17 03:31:22;;;;;;;28.30;18.70;;;;;;;6.73;93.33;101808.33;1433749;90;21479;-80
2022/10/17 03:33:48;;;;;;;29.20;19.47;;;;;;;6.74;93.53;101809.17;1440971;90;21471;-81
2022/10/17 03:36:17;;;;;;;31.43;20.37;;;;;;;6.73;93.27;101809.64;1443221;90;21486;-80
2022/10/17 03:38:46;;;;;;;30.47;20.10;;;;;;;6.72;92.98;101803.98;1432298;91;21452;-81
2022/10/17 03:41:13;;;;;;;27.27;18.93;;;;;;;6.70;93.03;101806.31;1435828;90;21903;-82
2022/10/17 03:43:39;;;;;;;28.50;19.43;;;;;;;6.67;93.53;101807.34;1431771;91;21535;-81
2022/10/17 03:46:06;;;;;;;27.23;17.27;;;;;;;6.66;93.47;101814.86;1439936;90;22241;-80
2022/10/17 03:48:32;;;;;;;31.40;16.87;;;;;;;6.66;93.33;101817.97;1436139;91;21404;-80
2022/10/17 03:51:08;;;;;;;28.93;18.10;;;;;;;6.66;93.30;101822.76;1431870;91;21493;-80
2022/10/17 03:53:35;;;;;;;46.20;21.57;;;;;;;6.67;93.23;101823.59;1431392;90;21582;-80
2022/10/17 03:56:21;;;;;;;45.97;23.70;;;;;;;6.67;93.24;101817.86;1420715;91;21605;-80
2022/10/17 03:58:48;;;;;;;52.43;25.63;;;;;;;6.68;93.65;101825.31;1413891;92;21593;-80
2022/10/17 04:01:17;;;;;;;79.70;33.13;;;;;;;6.65;93.44;101822.86;1418757;92;21605;-80
2022/10/17 04:03:45;;;;;;;63.63;29.23;;;;;;;6.62;93.85;101831.77;1416950;92;21597;-78
2022/10/17 04:06:12;;;;;;;71.47;29.47;;;;;;;6.61;93.37;101829.22;1416513;92;21641;-79
2022/10/17 04:08:38;;;;;;;65.73;28.40;;;;;;;6.58;94.28;101827.61;1432768;91;21500;-79
2022/10/17 04:11:07;;;;;;;67.37;30.50;;;;;;;6.59;94.17;101828.45;1432541;91;21435;-79
2022/10/17 04:13:34;;;;;;;69.47;28.17;;;;;;;6.60;94.04;101825.74;1432732;91;21420;-79
2022/10/17 04:16:04;;;;;;;64.97;29.03;;;;;;;6.59;94.35;101829.32;1439101;90;21512;-79
2022/10/17 04:18:31;;;;;;;70.37;31.37;;;;;;;6.60;94.11;101830.16;1435275;91;22412;-78
2022/10/17 04:20:59;;;;;;;64.97;28.13;;;;;;;6.56;94.14;101843.97;1431256;90;21369;-76
2022/10/17 04:23:26;;;;;;;68.37;30.47;;;;;;;6.51;94.72;101844.21;1425731;91;21512;-78
2022/10/17 04:25:58;;;;;;;63.83;28.13;;;;;;;6.44;96.62;101843.32;1439789;90;22308;-79
2022/10/17 04:28:25;;;;;;;75.40;28.23;;;;;;;6.42;95.55;101841.27;1432867;91;21498;-78
2022/10/17 04:31:07;;;;;;;52.37;25.07;;;;;;;6.40;95.19;101843.13;1432470;91;21394;-79
2022/10/17 04:33:33;;;;;;;52.27;24.23;;;;;;;6.40;94.84;101841.81;1431791;91;21309;-80
2022/10/17 04:36:05;;;;;;;56.93;24.30;;;;;;;6.38;95.10;101831.36;1431527;90;21382;-80
2022/10/17 04:38:33;;;;;;;48.90;24.80;;;;;;;6.41;94.68;101831.66;1443155;90;21464;-80
2022/10/17 04:41:06;;;;;;;52.73;25.37;;;;;;;6.42;94.59;101833.37;1433886;91;21485;-79
2022/10/17 04:43:35;;;;;;;45.47;23.57;;;;;;;6.42;94.22;101840.80;1428347;91;21545;-79
2022/10/17 04:46:04;;;;;;;48.13;23.03;;;;;;;6.42;93.99;101842.58;1445198;91;21426;-79
2022/10/17 04:48:31;;;;;;;49.87;23.67;;;;;;;6.38;93.67;101838.41;1404745;92;21491;-79
2022/10/17 04:51:01;;;;;;;46.47;23.00;;;;;;;6.37;93.68;101847.24;1413521;92;21504;-79
2022/10/17 04:53:30;;;;;;;44.50;22.40;;;;;;;6.33;93.70;101846.58;1430293;90;22415;-79
2022/10/17 04:55:56;;;;;;;42.10;20.67;;;;;;;6.32;93.62;101842.23;1412097;93;21536;-79
2022/10/17 04:58:23;;;;;;;52.27;22.60;;;;;;;6.33;93.61;101850.05;1425204;91;21508;-78
2022/10/17 05:00:49;;;;;;;50.20;23.87;;;;;;;6.34;93.65;101850.89;1432761;90;21656;-82
2022/10/17 05:03:16;;;;;;;50.20;24.80;;;;;;;6.36;93.62;101852.10;1434210;91;21372;-81
2022/10/17 05:05:42;;;;;;;49.80;22.20;;;;;;;6.38;93.58;101852.88;1424470;90;21413;-82
2022/10/17 05:08:10;;;;;;;40.40;21.07;;;;;;;6.40;93.89;101858.91;1404902;93;21415;-79
2022/10/17 05:10:41;;;;;;;42.00;23.50;;;;;;;6.40;93.54;101865.48;1391576;94;21378;-80
2022/10/17 05:13:08;;;;;;;39.97;22.23;;;;;;;6.40;93.32;101865.48;1379361;95;21615;-80
2022/10/17 05:15:35;;;;;;;43.57;20.60;;;;;;;6.42;93.18;101867.09;1394676;94;21622;-81
2022/10/17 05:18:01;;;;;;;30.53;18.13;;;;;;;6.46;93.19;101871.23;1381578;94;22453;-80
2022/10/17 05:20:27;;;;;;;37.70;19.10;;;;;;;6.50;93.33;101867.95;1399771;93;21526;-80
2022/10/17 05:22:53;;;;;;;40.20;20.00;;;;;;;6.52;93.78;101862.16;1398981;94;21711;-81
2022/10/17 05:25:20;;;;;;;34.10;20.03;;;;;;;6.53;93.65;101865.16;1369275;94;21626;-82
2022/10/17 05:27:46;;;;;;;40.07;20.63;;;;;;;6.51;93.91;101869.20;1389289;93;21637;-77
2022/10/17 05:30:13;;;;;;;40.67;21.77;;;;;;;6.49;95.03;101871.53;1384524;94;21475;-78
2022/10/17 05:32:39;;;;;;;35.40;21.37;;;;;;;6.49;94.92;101878.11;1384736;94;21511;-78
2022/10/17 05:35:06;;;;;;;31.97;18.17;;;;;;;6.49;94.60;101882.89;1389284;94;21681;-78
2022/10/17 05:37:32;;;;;;;27.17;16.97;;;;;;;6.54;95.40;101889.23;1391716;94;21564;-78
2022/10/17 05:39:58;;;;;;;32.23;18.00;;;;;;;6.57;96.08;101894.31;1385150;94;21535;-78
2022/10/17 05:42:24;;;;;;;34.33;16.60;;;;;;;6.67;95.36;101901.21;1384572;94;22392;-78
2022/10/17 05:44:50;;;;;;;32.67;16.13;;;;;;;6.77;95.79;101911.61;1390986;94;22359;-78
2022/10/17 05:47:16;;;;;;;29.57;18.87;;;;;;;6.85;95.91;101910.72;1388471;94;21497;-77
2022/10/17 05:49:42;;;;;;;29.30;20.43;;;;;;;6.92;95.65;101907.26;1382584;94;22157;-78
2022/10/17 05:52:08;;;;;;;36.07;20.37;;;;;;;7.00;95.19;101911.14;1391750;94;22525;-78
2022/10/17 05:54:34;;;;;;;39.00;20.67;;;;;;;7.08;95.33;101912.03;1385691;94;21682;-78
2022/10/17 05:57:00;;;;;;;49.10;19.77;;;;;;;7.19;95.92;101921.91;1391264;94;21585;-78
2022/10/17 05:59:27;;;;;;;34.40;19.97;;;;;;;7.30;95.54;101922.61;1385874;94;21460;-77
2022/10/17 06:01:53;;;;;;;24.77;16.43;;;;;;;7.42;95.35;101928.47;1386267;94;21614;-78
2022/10/17 06:04:19;;;;;;;33.20;17.23;;;;;;;7.55;95.64;101936.03;1387536;94;22624;-78
2022/10/17 06:06:45;;;;;;;39.43;17.83;;;;;;;7.67;95.42;101942.36;1389812;94;21659;-78
2022/10/17 06:09:12;;;;;;;33.93;17.43;;;;;;;7.77;95.59;101943.96;1392413;94;22142;-78
2022/10/17 06:11:38;;;;;;;25.43;16.60;;;;;;;7.89;95.48;101944.56;1388163;94;22620;-78
2022/10/17 06:14:04;;;;;;;29.93;17.27;;;;;;;8.02;95.77;101952.56;1387849;94;21611;-78
2022/10/17 06:16:30;;;;;;;25.87;17.13;;;;;;;8.12;95.48;101949.27;1392465;94;22273;-77
2022/10/17 06:18:57;;;;;;;23.00;14.57;;;;;;;8.22;95.30;101961.88;1393629;94;21571;-76
2022/10/17 06:21:26;;;;;;;32.10;15.97;;;;;;;8.31;95.51;101962.63;1391347;94;22406;-77
2022/10/17 06:23:52;;;;;;;26.90;16.63;;;;;;;8.40;95.75;101962.11;1385536;94;21505;-78
2022/10/17 06:26:19;;;;;;;28.87;16.50;;;;;;;8.51;95.79;101959.61;1382600;93;21421;-79
2022/10/17 06:28:45;;;;;;;30.97;19.10;;;;;;;8.65;95.43;101964.50;1388516;92;21563;-79
2022/10/17 06:31:15;;;;;;;32.20;18.77;;;;;;;8.81;95.30;101966.55;1383276;93;23006;-78
2022/10/17 06:33:41;;;;;;;26.10;19.90;;;;;;;8.96;95.07;101972.15;1383538;94;21540;-84
2022/10/17 06:36:11;;;;;;;29.40;20.33;;;;;;;9.15;95.21;101976.22;1393659;92;22497;-89
2022/10/17 06:38:37;;;;;;;27.13;17.33;;;;;;;9.34;95.24;101979.34;1397440;93;21584;-83
2022/10/17 06:41:13;;;;;;;28.60;16.70;;;;;;;9.57;95.29;101979.61;1389759;94;21600;-86
2022/10/17 06:43:44;;;;;;;31.67;17.00;;;;;;;9.78;95.01;101987.88;1393876;94;22296;-85
2022/10/17 06:46:10;;;;;;;22.35;17.20;;;;;;;10.03;94.85;101987.05;1400929;93;21501;-86
2022/10/17 06:48:36;;;;;;;24.07;16.73;;;;;;;10.23;94.39;101989.16;1404009;93;22147;-85
2022/10/17 06:51:05;;;;;;;24.80;16.30;;;;;;;10.43;93.98;101994.89;1404196;93;21434;-87
2022/10/17 06:53:33;;;;;;;29.23;15.43;;;;;;;10.59;93.50;101993.70;1401023;93;21492;-86
2022/10/17 06:56:02;;;;;;;23.40;15.73;;;;;;;10.76;92.82;102000.44;1370252;92;21634;-85
2022/10/17 06:58:31;;;;;;;24.83;15.63;;;;;;;10.95;92.62;101999.09;1348141;92;21509;-88
2022/10/17 07:01:03;;;;;;;23.00;17.67;;;;;;;11.14;92.41;102002.09;1398463;93;21583;-87
2022/10/17 07:03:29;;;;;;;22.77;15.80;;;;;;;11.30;91.93;102001.31;1405788;93;21652;-88
2022/10/17 07:05:57;;;;;;;22.30;14.37;;;;;;;11.40;90.71;102003.30;1386351;93;21494;-85
2022/10/17 07:08:24;;;;;;;23.17;15.47;;;;;;;11.53;90.49;102004.05;1405699;93;21538;-87
2022/10/17 07:10:51;;;;;;;31.07;16.80;;;;;;;11.70;90.38;102004.95;1339273;93;21464;-84
2022/10/17 07:13:18;;;;;;;24.03;17.20;;;;;;;11.85;89.92;102011.38;1481217;93;21369;-86
2022/10/17 07:15:44;;;;;;;28.50;16.63;;;;;;;12.01;89.53;102011.09;1358824;93;21546;-88
2022/10/17 07:18:11;;;;;;;25.50;17.70;;;;;;;12.18;89.27;102015.45;1405466;93;21486;-85
2022/10/17 07:20:37;;;;;;;26.70;17.90;;;;;;;12.33;88.03;102013.89;1400684;93;22413;-86
2022/10/17 07:23:04;;;;;;;41.63;31.57;;;;;;;12.49;88.12;102015.70;1386525;94;21572;-85
2022/10/17 07:25:29;;;;;;;56.50;39.60;;;;;;;12.68;87.41;102015.06;1395151;94;21452;-82
2022/10/17 07:27:56;;;;;;;53.33;40.03;;;;;;;12.84;86.57;102020.85;1399480;93;22491;-85
2022/10/17 07:30:23;;;;;;;42.53;34.13;;;;;;;12.95;85.35;102025.30;1396530;93;22421;-84
2022/10/17 07:32:53;;;;;;;42.57;31.30;;;;;;;13.05;84.88;102027.56;1370806;95;22509;-85
2022/10/17 07:35:20;;;;;;;32.60;19.73;;;;;;;13.20;84.91;102028.61;1372648;95;21756;-83
2022/10/17 07:37:46;;;;;;;25.77;18.97;;;;;;;13.32;84.56;102022.31;1410693;93;21435;-87
2022/10/17 07:40:12;;;;;;;30.63;18.50;;;;;;;13.42;83.32;102020.59;1388109;94;21461;-87
2022/10/17 07:42:38;;;;;;;32.90;17.87;;;;;;;13.49;82.25;102023.58;1391567;94;22354;-88
2022/10/17 07:45:05;;;;;;;33.13;20.10;;;;;;;13.62;82.72;102027.40;1401544;93;21487;-88
2022/10/17 07:47:34;;;;;;;30.00;20.00;;;;;;;13.77;82.71;102026.10;1371330;95;21476;-88
2022/10/17 07:50:00;;;;;;;24.10;16.77;;;;;;;13.91;82.57;102015.12;1397339;94;21533;-85
2022/10/17 07:52:26;;;;;;;42.87;29.57;;;;;;;14.05;81.42;102018.44;1395074;94;21488;-87
2022/10/17 07:54:52;;;;;;;26.50;19.77;;;;;;;14.18;81.36;102023.91;1389929;93;21509;-87
2022/10/17 07:57:18;;;;;;;24.90;17.00;;;;;;;14.30;79.85;102021.14;1387384;94;21517;-87
2022/10/17 07:59:44;;;;;;;24.07;19.23;;;;;;;14.31;77.97;102023.69;1389838;93;21495;-88
2022/10/17 08:02:19;;;;;;;23.03;18.33;;;;;;;14.37;77.71;102025.81;1389131;94;21451;-88
2022/10/17 08:04:45;;;;;;;27.47;19.67;;;;;;;14.38;76.87;102026.16;1390383;94;21571;-88
2022/10/17 08:07:11;;;;;;;28.00;21.63;;;;;;;14.42;76.82;102028.92;1393366;93;21546;-88
2022/10/17 08:09:37;;;;;;;40.70;25.30;;;;;;;14.45;77.22;102017.16;1390559;94;21450;-86
2022/10/17 08:12:03;;;;;;;30.33;20.47;;;;;;;14.61;77.59;102010.02;1396212;93;21487;-88
2022/10/17 08:14:29;;;;;;;30.97;24.60;;;;;;;14.75;77.49;102021.62;1393538;93;22427;-87
2022/10/17 08:16:55;;;;;;;39.13;26.23;;;;;;;14.93;77.48;102025.80;1391869;94;21562;-84
2022/10/17 08:19:21;;;;;;;37.77;23.70;;;;;;;15.14;77.13;102024.39;1388755;93;21562;-88
2022/10/17 08:21:48;;;;;;;23.80;19.57;;;;;;;15.29;76.72;102022.98;1391319;93;21479;-88
2022/10/17 08:24:15;;;;;;;25.23;17.40;;;;;;;15.55;76.80;102025.09;1391757;94;21577;-88
2022/10/17 08:26:41;;;;;;;31.70;20.40;;;;;;;15.72;76.17;102028.91;1394307;94;22398;-88
2022/10/17 08:29:13;;;;;;;23.80;16.77;;;;;;;15.84;74.93;102027.77;1402014;93;21466;-86
2022/10/17 08:31:40;;;;;;;26.73;18.00;;;;;;;15.96;73.84;102026.61;1375223;94;21656;-88
2022/10/17 08:34:06;;;;;;;30.90;18.23;;;;;;;16.11;74.00;102023.48;1388399;93;21547;-87
2022/10/17 08:36:33;;;;;;;23.97;18.20;;;;;;;16.27;73.79;102023.72;1390194;93;21464;-87
2022/10/17 08:38:59;;;;;;;31.63;17.53;;;;;;;16.39;72.56;102025.20;1402386;93;22404;-84
2022/10/17 08:41:50;;;;;;;32.93;18.63;;;;;;;16.52;72.29;102018.20;1387146;93;21459;-86
2022/10/17 08:44:34;;;;;;;21.13;17.17;;;;;;;16.65;71.89;102017.34;1394633;94;21576;-87
2022/10/17 08:47:03;;;;;;;30.97;16.77;;;;;;;16.77;71.45;102020.69;1390899;94;21516;-88
2022/10/17 08:49:54;;;;;;;19.87;14.17;;;;;;;17.01;69.25;102018.80;1395802;92;21575;-86
2022/10/17 08:52:50;;;;;;;22.20;14.43;;;;;;;17.01;69.25;102018.80;1395011;93;22401;-88
2022/10/17 08:55:30;;;;;;;30.70;18.73;;;;;;;17.16;68.88;102016.95;1380334;94;21607;-87
2022/10/17 08:57:56;;;;;;;28.30;17.07;;;;;;;17.35;68.50;102026.17;1388986;94;21576;-86
2022/10/17 09:00:24;;;;;;;29.10;17.20;;;;;;;17.56;68.13;102028.02;1387321;94;21465;-86
2022/10/17 09:03:04;;;;;;;23.50;16.67;;;;;;;17.81;67.39;102025.07;1389946;94;21494;-88
2022/10/17 09:05:37;;;;;;;;;;;;;;;18.16;66.42;102016.59;1388781;94;21524;-87
2022/10/17 09:08:28;;;;;;;28.83;16.15;;;;;;;18.60;63.18;102020.98;1386589;92;20390;-84
2022/10/17 09:11:32;;;;;;;23.05;14.98;;;;;;;19.16;63.66;102022.16;1388886;94;21428;-87
2022/10/17 09:14:06;;;;;;;29.85;15.95;;;;;;;19.80;60.67;102019.20;1394072;94;21568;-86
2022/10/17 09:16:56;;;;;;;20.25;14.75;;;;;;;20.56;59.20;102029.10;1382600;94;21735;-87
2022/10/17 09:19:40;;;;;;;18.73;13.25;;;;;;;21.29;57.35;102029.69;1387516;94;22604;-91
2022/10/17 09:22:18;;;;;;;20.43;13.13;;;;;;;22.06;55.38;102027.68;1394133;94;21531;-89
2022/10/17 09:24:55;;;;;;;19.82;12.60;;;;;;;22.72;52.28;102026.94;1400650;94;21546;-91
2022/10/17 09:27:35;;;;;;;20.27;12.93;;;;;;;23.18;50.32;102032.05;1393972;94;21392;-89
2022/10/17 09:30:37;;;;;;;31.80;15.58;;;;;;;23.42;49.45;102027.63;1392499;94;21576;-90
2022/10/17 09:33:24;;;;;;;29.35;15.30;;;;;;;23.82;48.65;102025.78;1394150;94;21488;-80
2022/10/17 09:35:51;;;;;;;22.87;13.22;;;;;;;24.17;47.11;102023.09;1391279;94;21812;-80
2022/10/17 09:38:21;;;;;;;25.85;13.98;;;;;;;24.47;46.04;102018.30;1387700;93;21524;-80
2022/10/17 09:40:59;;;;;;;25.17;14.07;;;;;;;24.64;45.60;102020.98;1397301;94;21702;-80
2022/10/17 09:43:26;;;;;;;20.30;13.62;;;;;;;24.98;45.23;102017.86;1396531;94;23556;-86
2022/10/17 09:46:10;;;;;;;19.07;12.13;;;;;;;25.26;44.69;102023.66;1392340;94;21555;-91
2022/10/17 09:48:47;;;;;;;16.82;12.10;;;;;;;25.16;44.01;102022.20;1391363;94;21554;-89
2022/10/17 09:51:15;;;;;;;25.68;12.35;;;;;;;25.39;43.75;102021.80;1393374;93;21480;-85
2022/10/17 09:53:49;;;;;;;16.87;11.55;;;;;;;25.37;42.99;102023.05;1394309;94;21413;-91
2022/10/17 09:56:18;;;;;;;20.65;13.43;;;;;;;25.55;42.11;102017.00;1391190;94;21502;-89
2022/10/17 09:58:53;;;;;;;18.73;12.35;;;;;;;25.41;41.68;102014.84;1395777;94;21539;-91
2022/10/17 10:01:30;;;;;;;22.05;12.65;;;;;;;25.68;41.86;102012.94;1388652;93;21487;-90
2022/10/17 10:04:15;;;;;;;20.32;10.95;;;;;;;25.93;41.24;102019.95;1395279;93;21971;-90
2022/10/17 10:07:04;;;;;;;34.23;12.05;;;;;;;26.11;41.59;102018.75;1394923;94;21443;-87
2022/10/17 10:09:33;;;;;;;14.15;9.98;;;;;;;26.08;40.46;102014.28;1394130;93;21710;-91
2022/10/17 10:12:05;;;;;;;15.13;10.98;;;;;;;26.21;40.70;102029.67;1392804;94;21495;-90
2022/10/17 10:14:35;;;;;;;29.18;10.10;;;;;;;26.23;40.08;102008.59;1409662;94;21554;-82
2022/10/17 10:17:05;;;;;;;41.23;11.45;;;;;;;26.14;39.04;102009.88;1416094;94;21378;-83
2022/10/17 10:19:37;;;;;;;15.83;10.18;;;;;;;26.07;39.53;102016.16;1377937;94;22353;-91
2022/10/17 10:22:15;;;;;;;14.18;10.40;;;;;;;25.91;38.69;102013.06;1393524;94;21502;-88
2022/10/17 10:24:42;;;;;;;20.40;10.58;;;;;;;25.56;38.55;102010.56;1393431;94;21584;-91
2022/10/17 10:27:18;;;;;;;26.35;10.10;;;;;;;25.49;39.47;102009.21;1399279;94;22152;-91
2022/10/17 10:29:51;;;;;;;13.10;9.30;;;;;;;25.20;38.96;102005.86;1397774;93;21702;-92
2022/10/17 10:32:26;;;;;;;20.45;10.05;;;;;;;25.11;39.37;102002.98;1390578;93;21458;-90
2022/10/17 10:34:59;;;;;;;17.27;9.45;;;;;;;25.30;38.79;102000.55;1386947;94;21502;-90
2022/10/17 10:37:45;;;;;;;23.52;9.98;;;;;;;25.29;38.62;101997.50;1390499;94;21653;-91
2022/10/17 10:40:22;;;;;;;33.20;9.53;;;;;;;25.17;39.04;102004.89;1391354;94;21594;-90
2022/10/17 10:42:51;;;;;;;22.15;9.80;;;;;;;25.00;39.11;101999.52;1398803;93;21733;-90
2022/10/17 10:45:38;;;;;;;25.02;8.98;;;;;;;24.78;38.70;102006.15;1376334;95;22573;-91
2022/10/17 10:48:21;;;;;;;15.70;8.28;;;;;;;24.79;39.28;101997.80;1405195;93;22507;-87
2022/10/17 10:50:53;;;;;;;9.28;7.03;;;;;;;24.70;38.67;101999.03;1386928;94;22510;-91
2022/10/17 10:54:00;;;;;;;15.38;7.53;;;;;;;24.80;38.66;101991.86;1391236;92;21571;-91
2022/10/17 10:56:39;;;;;;;16.97;7.72;;;;;;;24.83;37.71;101996.37;1392824;94;21474;-87
2022/10/17 10:59:18;;;;;;;11.33;7.62;;;;;;;24.94;38.40;101988.16;1387630;94;21787;-90
2022/10/17 11:02:10;;;;;;;19.82;8.03;;;;;;;25.11;38.81;101984.02;1395232;94;21526;-89
2022/10/17 11:04:51;;;;;;;17.82;7.00;;;;;;;25.34;38.82;101980.11;1391313;94;21445;-91
2022/10/17 11:07:37;;;;;;;13.45;7.05;;;;;;;25.38;37.89;101982.73;1393608;94;21652;-91
2022/10/17 11:10:43;;;;;;;16.23;7.50;;;;;;;25.41;37.61;101978.25;1390793;94;21652;-90
2022/10/17 11:13:20;;;;;;;9.55;6.85;;;;;;;25.44;37.59;101983.25;1393490;92;22333;-91
2022/10/17 11:16:13;;;;;;;18.52;8.15;;;;;;;25.34;38.16;101977.40;1389297;94;21703;-90
2022/10/17 11:19:06;;;;;;;14.93;7.08;;;;;;;25.25;38.41;101971.88;1386622;92;22146;-91
2022/10/17 11:21:51;;;;;;;13.10;8.03;;;;;;;25.16;38.67;101976.14;1398964;94;22430;-90
2022/10/17 11:24:31;;;;;;;13.18;6.67;;;;;;;24.94;38.44;101975.97;1392631;94;21468;-90
2022/10/17 11:27:04;;;;;;;19.15;5.83;;;;;;;24.76;38.16;101970.61;1374562;95;21539;-91
2022/10/17 11:29:34;;;;;;;9.65;6.20;;;;;;;24.74;38.59;101975.92;1396405;93;21527;-86
2022/10/17 11:32:09;;;;;;;15.93;6.15;;;;;;;24.96;38.55;101972.55;1380715;95;21468;-91
2022/10/17 11:34:40;;;;;;;9.85;5.72;;;;;;;25.19;38.13;101977.08;1401173;93;21524;-89
2022/10/17 11:37:18;;;;;;;14.35;5.50;;;;;;;25.47;37.96;101973.34;1387341;94;21511;-89